createdAt,value
2018-09-24T00:00:52.231Z,85.35
2018-09-24T00:03:20.759Z,85.05
2018-09-24T00:05:49.386Z,85.04
2018-09-24T00:08:17.935Z,85.23
2018-09-24T00:10:46.752Z,85.66
2018-09-24T00:13:15.196Z,85.78
2018-09-24T00:15:43.827Z,85.52
2018-09-24T00:18:12.282Z,85.28
2018-09-24T00:20:40.758Z,85.54
2018-09-24T00:23:09.363Z,84.87
2018-09-24T00:25:37.806Z,85.07
2018-09-24T00:28:06.616Z,84.79
2018-09-24T00:30:35.250Z,84.72
2018-09-24T00:33:03.858Z,85.00
2018-09-24T00:35:32.340Z,84.85
2018-09-24T00:38:00.850Z,85.52
2018-09-24T00:40:29.511Z,85.28
2018-09-24T00:42:57.946Z,85.85
2018-09-24T00:45:26.874Z,85.57
2018-09-24T00:47:55.343Z,85.71
2018-09-24T00:50:24.392Z,85.79
2018-09-24T00:52:52.926Z,86.30
2018-09-24T00:55:21.442Z,85.77
2018-09-24T00:57:50.004Z,85.83
2018-09-24T01:00:18.778Z,85.76
2018-09-24T01:02:47.496Z,85.82
2018-09-24T01:05:16.248Z,87.77
2018-09-24T01:07:45.753Z,86.23
2018-09-24T01:10:14.450Z,86.28
2018-09-24T01:12:43.128Z,85.64
2018-09-24T01:15:11.706Z,85.80
2018-09-24T01:17:40.222Z,86.51
2018-09-24T01:20:09.793Z,86.18
2018-09-24T01:22:38.553Z,85.89
2018-09-24T01:25:08.226Z,85.44
2018-09-24T01:27:36.892Z,84.79
2018-09-24T01:30:06.070Z,84.62
2018-09-24T01:32:34.514Z,84.60
2018-09-24T01:35:03.554Z,84.89
2018-09-24T01:37:32.030Z,84.18
2018-09-24T01:40:00.765Z,84.00
2018-09-24T01:42:29.390Z,84.77
2018-09-24T01:44:58.046Z,83.92
2018-09-24T01:47:26.554Z,83.97
2018-09-24T01:49:55.050Z,84.86
2018-09-24T01:52:23.846Z,84.44
2018-09-24T01:54:52.308Z,84.38
2018-09-24T01:57:20.927Z,83.94
2018-09-24T01:59:57.174Z,84.55
2018-09-24T02:02:25.746Z,84.21
2018-09-24T02:04:54.216Z,83.97
2018-09-24T02:07:22.735Z,83.36
2018-09-24T02:09:51.192Z,83.99
2018-09-24T02:12:20.171Z,84.15
2018-09-24T02:14:48.658Z,83.42
2018-09-24T02:17:22.017Z,83.11
2018-09-24T02:19:51.434Z,83.21
2018-09-24T02:22:30.454Z,83.20
2018-09-24T02:24:59.862Z,83.42
2018-09-24T02:27:28.845Z,83.31
2018-09-24T02:29:57.344Z,83.04
2018-09-24T02:32:25.868Z,83.72
2018-09-24T02:34:56.671Z,82.48
2018-09-24T02:37:25.168Z,82.35
2018-09-24T02:39:53.733Z,83.16
2018-09-24T02:42:22.224Z,82.13
2018-09-24T02:44:57.277Z,82.11
2018-09-24T02:47:30.174Z,82.33
2018-09-24T02:49:58.774Z,82.50
2018-09-24T02:52:27.230Z,82.30
2018-09-24T02:54:55.805Z,83.12
2018-09-24T02:57:24.813Z,83.14
2018-09-24T02:59:53.358Z,82.70
2018-09-24T03:02:22.116Z,83.68
2018-09-24T03:04:56.113Z,83.41
2018-09-24T03:07:25.074Z,83.37
2018-09-24T03:09:53.530Z,83.31
2018-09-24T03:12:22.137Z,83.58
2018-09-24T03:14:50.589Z,83.65
2018-09-24T03:17:19.907Z,83.56
2018-09-24T03:19:48.495Z,83.44
2018-09-24T03:22:22.803Z,83.92
2018-09-24T03:24:52.218Z,84.26
2018-09-24T03:27:21.314Z,84.63
2018-09-24T03:29:49.999Z,84.31
2018-09-24T03:32:18.761Z,84.41
2018-09-24T03:34:47.239Z,84.49
2018-09-24T03:37:15.943Z,84.24
2018-09-24T03:39:44.434Z,84.43
2018-09-24T03:42:13.042Z,83.96
2018-09-24T03:44:41.526Z,84.02
2018-09-24T03:47:10.226Z,83.57
2018-09-24T03:49:38.814Z,83.46
2018-09-24T03:52:07.414Z,83.34
2018-09-24T03:54:36.144Z,82.96
2018-09-24T03:57:04.701Z,83.15
2018-09-24T03:59:33.670Z,83.16
2018-09-24T04:02:02.174Z,83.25
2018-09-24T04:04:35.814Z,83.18
2018-09-24T04:07:09.467Z,83.42
2018-09-24T04:09:43.150Z,83.47
2018-09-24T04:12:16.678Z,83.73
2018-09-24T04:14:50.666Z,84.07
2018-09-24T04:17:24.470Z,83.73
2018-09-24T04:19:58.215Z,84.27
2018-09-24T04:22:32.106Z,83.09
2018-09-24T04:25:05.829Z,81.64
2018-09-24T04:27:39.555Z,81.73
2018-09-24T04:30:13.502Z,83.29
2018-09-24T04:32:47.512Z,81.24
2018-09-24T04:35:21.318Z,81.28
2018-09-24T04:37:55.025Z,82.33
2018-09-24T04:40:28.770Z,81.58
2018-09-24T04:43:02.621Z,81.55
2018-09-24T04:45:36.608Z,81.97
2018-09-24T04:48:10.350Z,82.04
2018-09-24T04:50:44.125Z,81.70
2018-09-24T04:53:17.857Z,81.03
2018-09-24T04:55:51.603Z,80.04
2018-09-24T04:58:25.492Z,80.15
2018-09-24T05:00:59.371Z,79.09
2018-09-24T05:03:33.073Z,79.35
2018-09-24T05:06:06.975Z,79.57
2018-09-24T05:08:40.786Z,79.39
2018-09-24T05:11:14.683Z,79.46
2018-09-24T05:13:48.582Z,79.72
2018-09-24T05:16:22.483Z,79.77
2018-09-24T05:18:56.318Z,79.89
2018-09-24T05:21:30.002Z,79.46
2018-09-24T05:24:03.820Z,80.23
2018-09-24T05:26:37.727Z,78.89
2018-09-24T05:29:11.849Z,79.27
2018-09-24T05:31:45.782Z,79.22
2018-09-24T05:34:19.695Z,79.82
2018-09-24T05:36:53.571Z,80.09
2018-09-24T05:39:27.433Z,80.03
2018-09-24T05:42:01.254Z,80.39
2018-09-24T05:44:34.918Z,80.58
2018-09-24T05:47:08.878Z,80.68
2018-09-24T05:49:42.813Z,80.73
2018-09-24T05:52:16.503Z,80.87
2018-09-24T05:54:50.294Z,80.32
2018-09-24T05:57:23.934Z,79.38
2018-09-24T05:59:57.818Z,79.41
2018-09-24T06:02:31.767Z,79.11
2018-09-24T06:05:05.731Z,78.94
2018-09-24T06:07:39.538Z,79.13
2018-09-24T06:10:13.402Z,78.55
2018-09-24T06:12:47.266Z,78.42
2018-09-24T06:15:21.072Z,77.11
2018-09-24T06:17:54.946Z,77.39
2018-09-24T06:20:28.769Z,76.37
2018-09-24T06:23:02.422Z,76.39
2018-09-24T06:25:36.266Z,76.14
2018-09-24T06:28:10.174Z,75.93
2018-09-24T06:30:44.074Z,75.46
2018-09-24T06:33:17.858Z,74.81
2018-09-24T06:35:51.626Z,74.98
2018-09-24T06:38:25.314Z,73.19
2018-09-24T06:40:59.110Z,74.65
2018-09-24T06:43:32.764Z,74.20
2018-09-24T06:46:06.473Z,74.09
2018-09-24T06:48:40.320Z,74.20
2018-09-24T06:51:13.906Z,73.56
2018-09-24T06:53:47.689Z,74.21
2018-09-24T06:56:21.574Z,74.21
2018-09-24T06:58:55.262Z,73.61
2018-09-24T07:01:28.936Z,73.31
2018-09-24T07:04:02.750Z,72.40
2018-09-24T07:06:36.498Z,70.65
2018-09-24T07:09:12.155Z,70.29
2018-09-24T07:11:45.890Z,70.80
2018-09-24T07:14:19.703Z,70.23
2018-09-24T07:16:53.756Z,70.37
2018-09-24T07:19:27.538Z,67.03
2018-09-24T07:22:01.317Z,67.27
2018-09-24T07:24:35.011Z,67.44
2018-09-24T07:27:08.862Z,67.85
2018-09-24T07:29:42.621Z,67.15
2018-09-24T07:32:16.541Z,68.68
2018-09-24T07:34:50.288Z,69.13
2018-09-24T07:37:23.991Z,64.07
2018-09-24T07:39:57.638Z,66.32
2018-09-24T07:42:31.470Z,65.12
2018-09-24T07:45:05.290Z,67.02
2018-09-24T07:47:38.878Z,65.74
2018-09-24T07:50:12.734Z,64.55
2018-09-24T07:52:46.540Z,66.09
2018-09-24T07:55:20.293Z,64.59
2018-09-24T07:57:54.123Z,67.11
2018-09-24T08:00:27.922Z,65.27
2018-09-24T08:03:01.674Z,66.35
2018-09-24T08:05:35.580Z,66.57
2018-09-24T08:08:09.465Z,65.22
2018-09-24T08:10:43.229Z,64.92
2018-09-24T08:13:16.993Z,65.87
2018-09-24T08:15:50.667Z,63.90
2018-09-24T08:18:24.590Z,63.89
2018-09-24T08:20:58.569Z,64.59
2018-09-24T08:23:32.358Z,64.58
2018-09-24T08:26:06.173Z,64.42
2018-09-24T08:28:40.099Z,63.79
2018-09-24T08:31:14.238Z,63.20
2018-09-24T08:33:48.010Z,63.11
2018-09-24T08:36:21.864Z,63.11
2018-09-24T08:38:55.698Z,63.09
2018-09-24T08:41:29.342Z,59.79
2018-09-24T08:44:02.921Z,61.30
2018-09-24T08:46:36.636Z,60.06
2018-09-24T08:51:40.562Z,62.30
2018-09-24T08:54:14.288Z,60.24
2018-09-24T08:56:48.094Z,59.84
2018-09-24T08:59:21.963Z,58.61
2018-09-24T09:01:55.854Z,58.94
2018-09-24T09:04:29.592Z,57.27
2018-09-24T09:07:03.318Z,59.55
2018-09-24T09:09:36.974Z,60.29
2018-09-24T09:12:10.823Z,59.81
2018-09-24T09:14:44.560Z,59.28
2018-09-24T09:17:18.775Z,59.20
2018-09-24T09:19:52.409Z,59.18
2018-09-24T09:22:26.294Z,54.95
2018-09-24T09:24:59.949Z,57.53
2018-09-24T09:27:33.742Z,58.81
2018-09-24T09:30:07.322Z,60.09
2018-09-24T09:32:41.423Z,58.69
2018-09-24T09:35:15.129Z,57.55
2018-09-24T09:37:48.878Z,57.11
2018-09-24T09:40:22.736Z,54.79
2018-09-24T09:42:56.703Z,56.69
2018-09-24T09:45:30.451Z,54.73
2018-09-24T09:48:04.550Z,54.99
2018-09-24T09:50:38.587Z,55.71
2018-09-24T09:53:12.350Z,55.40
2018-09-24T09:55:46.190Z,53.38
2018-09-24T09:58:19.850Z,54.01
2018-09-24T10:00:53.470Z,53.33
2018-09-24T10:03:27.490Z,56.08
2018-09-24T10:06:01.270Z,55.73
2018-09-24T10:08:34.971Z,54.71
2018-09-24T10:11:08.775Z,52.59
2018-09-24T10:13:42.478Z,52.35
2018-09-24T10:16:16.138Z,54.27
2018-09-24T10:18:50.058Z,52.34
2018-09-24T10:21:23.842Z,55.19
2018-09-24T10:23:57.603Z,55.18
2018-09-24T10:26:31.670Z,53.78
2018-09-24T10:29:05.345Z,50.30
2018-09-24T10:31:39.369Z,50.91
2018-09-24T10:34:13.445Z,52.62
2018-09-24T10:36:47.166Z,50.68
2018-09-24T10:39:20.705Z,50.05
2018-09-24T10:41:54.442Z,47.04
2018-09-24T10:44:28.319Z,48.91
2018-09-24T10:47:02.202Z,51.80
2018-09-24T10:49:36.213Z,47.87
2018-09-24T10:52:10.057Z,47.73
2018-09-24T10:54:43.758Z,47.81
2018-09-24T10:57:17.360Z,47.23
2018-09-24T10:59:51.327Z,48.70
2018-09-24T11:02:25.174Z,48.89
2018-09-24T11:04:59.098Z,46.70
2018-09-24T11:07:32.746Z,48.36
2018-09-24T11:10:06.575Z,48.07
2018-09-24T11:12:40.590Z,50.12
2018-09-24T11:15:14.486Z,48.25
2018-09-24T11:17:48.523Z,48.90
2018-09-24T11:20:22.185Z,47.18
2018-09-24T11:22:55.949Z,49.37
2018-09-24T11:25:29.651Z,50.34
2018-09-24T11:28:03.745Z,48.87
2018-09-24T11:30:37.615Z,45.48
2018-09-24T11:33:11.374Z,46.25
2018-09-24T11:35:45.322Z,49.23
2018-09-24T11:38:19.167Z,48.66
2018-09-24T11:40:52.870Z,46.61
2018-09-24T11:43:26.865Z,48.59
2018-09-24T11:46:00.778Z,46.05
2018-09-24T11:48:34.406Z,49.38
2018-09-24T11:51:08.326Z,45.77
2018-09-24T11:53:42.062Z,46.22
2018-09-24T11:56:15.846Z,49.93
2018-09-24T11:58:49.715Z,48.93
2018-09-24T12:01:23.464Z,46.75
2018-09-24T12:03:57.426Z,46.41
2018-09-24T12:06:31.877Z,45.66
2018-09-24T12:09:05.792Z,46.60
2018-09-24T12:11:39.473Z,46.65
2018-09-24T12:14:13.277Z,47.40
2018-09-24T12:16:47.133Z,48.64
2018-09-24T12:19:20.850Z,47.67
2018-09-24T12:21:54.905Z,46.24
2018-09-24T12:24:28.673Z,45.71
2018-09-24T12:27:02.354Z,46.81
2018-09-24T12:29:36.094Z,48.72
2018-09-24T12:32:09.778Z,45.80
2018-09-24T12:34:43.584Z,46.75
2018-09-24T12:37:17.633Z,46.90
2018-09-24T12:39:51.398Z,47.40
2018-09-24T12:42:25.086Z,50.20
2018-09-24T12:44:58.878Z,47.68
2018-09-24T12:47:32.640Z,47.06
2018-09-24T12:50:06.354Z,46.78
2018-09-24T12:52:40.262Z,45.94
2018-09-24T12:55:14.143Z,46.83
2018-09-24T12:57:47.962Z,46.01
2018-09-24T13:00:21.985Z,46.27
2018-09-24T13:02:55.764Z,48.00
2018-09-24T13:05:29.395Z,47.27
2018-09-24T13:08:03.299Z,49.66
2018-09-24T13:10:36.982Z,49.15
2018-09-24T13:13:10.704Z,47.14
2018-09-24T13:15:44.890Z,45.84
2018-09-24T13:18:18.720Z,45.12
2018-09-24T13:20:52.450Z,47.07
2018-09-24T13:23:26.271Z,47.53
2018-09-24T13:25:59.902Z,46.66
2018-09-24T13:28:33.639Z,47.49
2018-09-24T13:31:07.652Z,45.84
2018-09-24T13:33:41.511Z,47.06
2018-09-24T13:36:15.200Z,45.86
2018-09-24T13:38:49.314Z,46.67
2018-09-24T13:41:22.910Z,47.68
2018-09-24T13:43:56.629Z,47.58
2018-09-24T13:46:30.647Z,48.04
2018-09-24T13:49:04.613Z,47.44
2018-09-24T13:51:38.494Z,48.52
2018-09-24T13:54:12.715Z,48.46
2018-09-24T13:56:46.622Z,47.37
2018-09-24T13:59:20.634Z,49.27
2018-09-24T14:01:54.746Z,47.43
2018-09-24T14:04:28.707Z,47.12
2018-09-24T14:07:02.695Z,47.81
2018-09-24T14:09:36.525Z,47.73
2018-09-24T14:12:10.438Z,47.98
2018-09-24T14:14:44.107Z,47.93
2018-09-24T14:17:17.970Z,48.56
2018-09-24T14:19:51.947Z,48.94
2018-09-24T14:22:25.898Z,49.75
2018-09-24T14:24:59.874Z,48.95
2018-09-24T14:27:33.939Z,49.35
2018-09-24T14:30:07.677Z,50.19
2018-09-24T14:32:42.394Z,49.42
2018-09-24T14:35:16.119Z,47.99
2018-09-24T14:37:49.898Z,48.37
2018-09-24T14:40:23.742Z,48.27
2018-09-24T14:42:58.067Z,49.41
2018-09-24T14:45:31.873Z,50.07
2018-09-24T14:48:05.606Z,49.09
2018-09-24T14:50:39.519Z,49.94
2018-09-24T14:53:13.321Z,48.67
2018-09-24T14:55:47.050Z,49.56
2018-09-24T14:58:20.818Z,49.75
2018-09-24T15:00:54.621Z,49.37
2018-09-24T15:03:28.282Z,50.88
2018-09-24T15:06:01.969Z,50.36
2018-09-24T15:08:35.837Z,47.95
2018-09-24T15:11:09.504Z,48.43
2018-09-24T15:13:43.461Z,49.46
2018-09-24T15:16:17.243Z,49.76
2018-09-24T15:18:50.925Z,49.51
2018-09-24T15:21:24.845Z,48.55
2018-09-24T15:23:58.405Z,49.10
2018-09-24T15:26:32.166Z,50.42
2018-09-24T15:29:06.079Z,49.94
2018-09-24T15:31:39.813Z,49.27
2018-09-24T15:34:13.945Z,48.79
2018-09-24T15:36:48.309Z,49.02
2018-09-24T15:39:22.198Z,49.57
2018-09-24T15:41:55.853Z,49.53
2018-09-24T15:44:29.734Z,49.14
2018-09-24T15:47:03.546Z,49.77
2018-09-24T15:49:37.333Z,48.70
2018-09-24T15:52:10.990Z,48.42
2018-09-24T15:54:44.806Z,48.46
2018-09-24T15:57:18.791Z,49.78
2018-09-24T15:59:52.517Z,47.70
2018-09-24T16:02:26.235Z,48.66
2018-09-24T16:05:00.034Z,49.22
2018-09-24T16:07:33.806Z,47.86
2018-09-24T16:10:07.497Z,49.01
2018-09-24T16:12:41.444Z,47.98
2018-09-24T16:15:15.918Z,46.61
2018-09-24T16:17:49.746Z,46.67
2018-09-24T16:20:23.405Z,49.34
2018-09-24T16:22:57.074Z,45.89
2018-09-24T16:25:30.966Z,46.36
2018-09-24T16:28:04.998Z,46.50
2018-09-24T16:30:38.790Z,45.86
2018-09-24T16:33:14.208Z,46.70
2018-09-24T16:35:50.848Z,50.62
2018-09-24T16:38:26.406Z,50.34
2018-09-24T16:41:02.402Z,49.14
2018-09-24T16:43:37.726Z,50.24
2018-09-24T16:46:13.502Z,51.14
2018-09-24T16:48:47.537Z,49.38
2018-09-24T16:51:22.499Z,49.54
2018-09-24T16:53:56.462Z,50.33
2018-09-24T16:56:30.982Z,49.65
2018-09-24T16:59:05.175Z,48.48
2018-09-24T17:01:40.035Z,50.60
2018-09-24T17:04:13.987Z,51.28
2018-09-24T17:06:47.737Z,52.79
2018-09-24T17:09:21.684Z,52.30
2018-09-24T17:11:55.444Z,50.12
2018-09-24T17:14:29.169Z,49.50
2018-09-24T17:17:03.816Z,49.11
2018-09-24T17:19:37.764Z,49.05
2018-09-24T17:22:13.474Z,49.49
2018-09-24T17:24:47.763Z,52.20
2018-09-24T17:27:21.474Z,49.55
2018-09-24T17:29:55.584Z,49.28
2018-09-24T17:32:29.419Z,50.15
2018-09-24T17:35:03.345Z,50.52
2018-09-24T17:37:36.981Z,51.63
2018-09-24T17:40:10.762Z,51.76
2018-09-24T17:42:44.835Z,51.85
2018-09-24T17:45:18.691Z,53.35
2018-09-24T17:47:58.034Z,53.02
2018-09-24T17:50:39.126Z,52.54
2018-09-24T17:53:15.868Z,52.80
2018-09-24T17:55:50.235Z,52.20
2018-09-24T17:58:26.182Z,53.61
2018-09-24T18:01:08.451Z,52.42
2018-09-24T18:06:27.134Z,54.46
2018-09-24T18:09:07.794Z,55.16
2018-09-24T18:11:47.688Z,54.90
2018-09-24T18:14:26.787Z,55.24
2018-09-24T18:17:07.213Z,55.75
2018-09-24T18:19:45.701Z,56.29
2018-09-24T18:22:19.607Z,55.95
2018-09-24T18:24:58.638Z,56.91
2018-09-24T18:27:39.578Z,57.00
2018-09-24T18:30:15.810Z,57.71
2018-09-24T18:32:56.066Z,57.22
2018-09-24T18:35:32.488Z,57.65
2018-09-24T18:38:06.338Z,57.60
2018-09-24T18:40:45.048Z,58.96
2018-09-24T18:43:19.227Z,59.40
2018-09-24T18:45:53.852Z,59.10
2018-09-24T18:48:27.603Z,59.98
2018-09-24T18:51:01.708Z,60.81
2018-09-24T18:53:35.615Z,60.25
2018-09-24T18:56:09.611Z,60.42
2018-09-24T18:58:43.502Z,60.75
2018-09-24T19:01:17.279Z,61.19
2018-09-24T19:03:51.070Z,61.28
2018-09-24T19:06:24.909Z,61.45
2018-09-24T19:08:59.037Z,61.69
2018-09-24T19:11:32.720Z,61.75
2018-09-24T19:14:06.594Z,62.63
2018-09-24T19:16:40.195Z,62.61
2018-09-24T19:19:14.067Z,63.11
2018-09-24T19:21:47.832Z,63.29
2018-09-24T19:24:21.928Z,63.84
2018-09-24T19:26:55.751Z,64.07
2018-09-24T19:29:29.566Z,65.11
2018-09-24T19:32:03.158Z,65.54
2018-09-24T19:34:37.033Z,66.68
2018-09-24T19:37:11.092Z,66.32
2018-09-24T19:39:44.774Z,66.73
2018-09-24T19:42:18.625Z,66.87
2018-09-24T19:44:52.514Z,67.33
2018-09-24T19:47:26.262Z,67.37
2018-09-24T19:50:00.031Z,67.73
2018-09-24T19:52:33.722Z,67.42
2018-09-24T19:55:07.758Z,68.11
2018-09-24T19:57:41.471Z,69.41
2018-09-24T20:00:15.341Z,68.45
2018-09-24T20:02:49.050Z,68.53
2018-09-24T20:05:23.070Z,69.21
2018-09-24T20:07:56.673Z,68.60
2018-09-24T20:10:30.614Z,69.23
2018-09-24T20:13:04.324Z,69.58
2018-09-24T20:15:38.074Z,69.98
2018-09-24T20:18:11.921Z,70.28
2018-09-24T20:20:45.746Z,68.17
2018-09-24T20:23:19.638Z,67.71
2018-09-24T20:25:53.490Z,67.98
2018-09-24T20:28:27.310Z,67.36
2018-09-24T20:31:01.137Z,65.49
2018-09-24T20:33:34.810Z,65.79
2018-09-24T20:36:08.571Z,65.24
2018-09-24T20:38:42.222Z,65.11
2018-09-24T20:41:17.039Z,65.02
2018-09-24T20:43:50.732Z,65.56
2018-09-24T20:46:24.412Z,66.68
2018-09-24T20:48:58.161Z,67.77
2018-09-24T20:51:31.981Z,67.54
2018-09-24T20:54:05.714Z,68.68
2018-09-24T20:56:39.693Z,67.61
2018-09-24T20:59:13.546Z,67.50
2018-09-24T21:01:47.223Z,68.04
2018-09-24T21:04:20.989Z,67.69
2018-09-24T21:06:54.830Z,67.83
2018-09-24T21:09:28.469Z,69.16
2018-09-24T21:12:02.320Z,69.22
2018-09-24T21:14:36.028Z,69.27
2018-09-24T21:17:09.668Z,69.03
2018-09-24T21:19:43.610Z,68.95
2018-09-24T21:22:17.315Z,69.16
2018-09-24T21:24:51.051Z,69.15
2018-09-24T21:27:24.898Z,68.65
2018-09-24T21:29:58.617Z,69.26
2018-09-24T21:32:32.312Z,69.34
2018-09-24T21:35:06.094Z,69.68
2018-09-24T21:37:39.724Z,70.42
2018-09-24T21:40:13.717Z,70.59
2018-09-24T21:42:47.768Z,71.18
2018-09-24T21:45:21.561Z,71.72
2018-09-24T21:47:55.225Z,71.71
2018-09-24T21:50:29.007Z,72.06
2018-09-24T21:53:02.918Z,72.08
2018-09-24T21:55:36.722Z,72.18
2018-09-24T21:58:10.578Z,72.08
2018-09-24T22:00:44.214Z,72.35
2018-09-24T22:03:17.883Z,72.07
2018-09-24T22:05:51.667Z,72.00
2018-09-24T22:08:25.540Z,72.18
2018-09-24T22:10:59.607Z,72.07
2018-09-24T22:13:33.616Z,70.51
2018-09-24T22:16:07.330Z,69.89
2018-09-24T22:18:41.017Z,69.63
2018-09-24T22:21:14.878Z,69.60
2018-09-24T22:23:48.675Z,69.11
2018-09-24T22:26:22.362Z,68.68
2018-09-24T22:28:56.346Z,69.09
2018-09-24T22:31:30.049Z,69.81
2018-09-24T22:34:03.955Z,70.12
2018-09-24T22:36:37.801Z,69.98
2018-09-24T22:39:14.098Z,70.31
2018-09-24T22:41:48.262Z,70.80
2018-09-24T22:44:21.986Z,71.42
2018-09-24T22:46:55.791Z,71.55
2018-09-24T22:49:29.437Z,72.78
2018-09-24T22:52:03.150Z,71.21
2018-09-24T22:54:36.975Z,70.92
2018-09-24T22:57:10.706Z,70.44
2018-09-24T22:59:45.402Z,70.73
2018-09-24T23:02:19.181Z,70.68
2018-09-24T23:04:52.830Z,69.94
2018-09-24T23:07:26.701Z,69.97
2018-09-24T23:10:00.816Z,69.83
2018-09-24T23:12:34.626Z,70.00
2018-09-24T23:15:08.486Z,70.50
2018-09-24T23:17:42.299Z,71.37
2018-09-24T23:20:16.036Z,71.51
2018-09-24T23:22:49.945Z,71.56
2018-09-24T23:25:23.760Z,70.29
2018-09-24T23:27:57.545Z,70.10
2018-09-24T23:30:31.514Z,69.30
2018-09-24T23:33:05.675Z,69.01
2018-09-24T23:35:39.458Z,68.89
2018-09-24T23:38:13.289Z,69.73
2018-09-24T23:40:46.990Z,69.49
2018-09-24T23:43:20.637Z,70.30
2018-09-24T23:45:54.442Z,71.13
2018-09-24T23:48:28.471Z,71.23
2018-09-24T23:51:02.322Z,71.73
2018-09-24T23:53:36.073Z,71.70
2018-09-24T23:56:09.809Z,71.63
2018-09-24T23:58:43.443Z,71.39
